Nearby METAR Reports

 

KLXT - Lees Summit Muni, Missouri, USA
Distance from station: E 5mi, 9km
Updated: Sun, 11-Dec-2016 2:53am CST
Overcast
Overcast
 Wind from SSE
Wind: SSE 13 mph , 20 km/h
Temperature: 39°F , 4°C
Wind Chill: 31°F , -1°C
Dew Point: 23°F , -5°C
Humidity: 52%
Barometer: 29.84 inHg , 1010.5 hPa
Clouds: Overcast
Visibility: 10 miles , 16 km
Cloud details: Overcast 2600 ft
2016/12/11 08:53 KLXT 110853Z AUTO 16011KT 10SM OVC026 04/M05 A2984 RMK AO2 SLP112 T00391050 56039 TSNO
KMKC - Kansas City/Dntn, Missouri, USA
Distance from station: NW 12mi, 19km
Updated: Sun, 11-Dec-2016 2:54am CST
Overcast
Overcast
 Wind from SSE
Wind: SSE 7 mph , 11 km/h
Temperature: 41°F , 5°C
Wind Chill: 36°F , 2°C
Dew Point: 25°F , -4°C
Humidity: 53%
Barometer: 29.84 inHg , 1010.5 hPa
Clouds: Overcast
Visibility: 10 miles , 16 km
Cloud details: Overcast 2700 ft
2016/12/11 08:54 KMKC 110854Z 16006KT 10SM OVC027 05/M04 A2984 RMK AO2 SLP108 T00501044 56039
 
KIXD - Olathe/Industria, Kansas, USA
Distance from station: WSW 25mi, 41km
Updated: Sun, 11-Dec-2016 2:53am CST
Overcast
Overcast
 Wind from SSE
Wind: SSE 16 mph , 26 km/h, Gust: 24 mph , 39 km/h
Temperature: 41°F , 5°C
Wind Chill: 33°F , 1°C
Dew Point: 28°F , -2°C
Humidity: 61%
Barometer: 29.82 inHg , 1009.8 hPa
Clouds: Overcast
Visibility: 10 miles , 16 km
Cloud details: Overcast 2300 ft
2016/12/11 08:53 KIXD 110853Z AUTO 16014G21KT 10SM OVC023 05/M02 A2982 RMK AO2 SLP103 T00501017 56040
KMCI - Kansas City/Intl, Missouri, USA
Distance from station: NW 26mi, 42km
Updated: Sun, 11-Dec-2016 2:53am CST
Overcast
Overcast
 Wind from SSE
Wind: SSE 15 mph , 24 km/h
Temperature: 39°F , 4°C
Wind Chill: 31°F , -1°C
Dew Point: 25°F , -4°C
Humidity: 56%
Barometer: 29.83 inHg , 1010.2 hPa
Clouds: Overcast
Visibility: 10 miles , 16 km
Cloud details: Overcast 2400 ft
2016/12/11 08:53 KMCI 110853Z 16013KT 10SM OVC024 04/M04 A2983 RMK AO2 SLP104 T00441044 56035
 
KRCM - Warrensburg Skyh, Missouri, USA
Distance from station: ESE 38mi, 62km
Updated: Sun, 11-Dec-2016 3:55am CST
Overcast
Overcast
 Wind from SSE
Wind: SSE 14 mph , 22 km/h, Gust: 17 mph , 28 km/h
Temperature: 41°F , 5°C
Wind Chill: 33°F , 1°C
Dew Point: 27°F , -3°C
Humidity: 57%
Barometer: 29.85 inHg , 1010.8 hPa
Clouds: Overcast
Visibility: 10 miles , 16 km
Cloud details: Overcast 3000 ft
2016/12/11 09:55 KRCM 110955Z AUTO 15012G15KT 10SM OVC030 05/M03 A2985 RMK AO2
KLWC - Lawrence, Kansas, USA
Distance from station: W 40mi, 65km
Updated: Sun, 11-Dec-2016 2:52am CST
Overcast
Overcast
 Wind from SE
Wind: SE 12 mph , 19 km/h
Temperature: 41°F , 5°C
Wind Chill: 34°F , 1°C
Dew Point: 30°F , -1°C
Humidity: 66%
Barometer: 29.81 inHg , 1009.5 hPa
Clouds: Overcast
Visibility: 10 miles , 16 km
Cloud details: Overcast 2400 ft
2016/12/11 08:52 KLWC 110852Z AUTO 14010KT 10SM OVC024 05/M01 A2981 RMK AO2 SLP100 T00501006 56040
 
KSZL - Whiteman Afb, Missouri, USA
Distance from station: ESE 53mi, 86km
Updated: Sun, 11-Dec-2016 2:58am CST
Overcast
Overcast
 Wind from S
Wind: S 13 mph , 20 km/h
Temperature: 39°F , 4°C
Wind Chill: 31°F , -1°C
Dew Point: 23°F , -5°C
Humidity: 52%
Barometer: 29.88 inHg , 1011.9 hPa
Clouds: Overcast
Visibility: 10 miles , 16 km
Cloud details: Overcast 2800 ft
2016/12/11 08:58 KSZL 110858Z AUTO 18011KT 10SM OVC028 04/M05 A2988 RMK AO2 SLP126 T00431047 57039
KSTJ - St. Joseph, Missouri, USA
Distance from station: NNW 59mi, 95km
Updated: Sun, 11-Dec-2016 2:53am CST
Overcast
Overcast
 Wind from ESE
Wind: ESE 7 mph , 11 km/h
Temperature: 37°F , 3°C
Wind Chill: 32°F , 0°C
Dew Point: 25°F , -4°C
Humidity: 60%
Barometer: 29.84 inHg , 1010.5 hPa
Clouds: Overcast
Visibility: 10 miles , 16 km
Cloud details: Overcast 2800 ft
2016/12/11 08:53 KSTJ 110853Z AUTO 12006KT 10SM OVC028 03/M04 A2984 RMK AO2 SLP109 T00331039 56037
 
KGLY - Clinton, Missouri, USA
Distance from station: SE 61mi, 98km
Updated: Sun, 11-Dec-2016 3:35am CST
Overcast
Overcast
 Wind from SSE
Wind: SSE 13 mph , 20 km/h
Temperature: 41°F , 5°C
Wind Chill: 34°F , 1°C
Dew Point: 25°F , -4°C
Humidity: 53%
Barometer: 29.89 inHg , 1012.2 hPa
Clouds: Overcast
Visibility: 10 miles , 16 km
Cloud details: Overcast 3100 ft
2016/12/11 09:35 KGLY 110935Z AUTO 16011KT 10SM OVC031 05/M04 A2989 RMK AO2
KFOE - Topeka/Forbes, Kansas, USA
Distance from station: W 64mi, 103km
Updated: Sun, 11-Dec-2016 2:53am CST
Overcast
Overcast
 Wind from SSE
Wind: SSE 13 mph , 20 km/h, Gust: 22 mph , 35 km/h
Temperature: 43°F , 6°C
Wind Chill: 36°F , 2°C
Dew Point: 32°F , 0°C
Humidity: 66%
Barometer: 29.77 inHg , 1008.1 hPa
Clouds: Overcast
Visibility: 10 miles , 16 km
Cloud details: Overcast 2200 ft
2016/12/11 08:53 KFOE 110853Z AUTO 16011G19KT 10SM OVC022 06/00 A2977 RMK AO2 SLP087 T00560000 56040
 
KDMO - Sedalia, Missouri, USA
Distance from station: ESE 72mi, 116km
Updated: Sun, 11-Dec-2016 3:45am CST
Overcast
Overcast
 Wind from S
Wind: S 14 mph , 22 km/h
Temperature: 41°F , 5°C
Wind Chill: 33°F , 1°C
Dew Point: 25°F , -4°C
Humidity: 53%
Barometer: 29.90 inHg , 1012.5 hPa
Clouds: Overcast
Visibility: 10 miles , 16 km
Cloud details: Overcast 2900 ft
2016/12/11 09:45 KDMO 110945Z AUTO 17012KT 10SM OVC029 05/M04 A2990 RMK AO2 T00501044 $
KCDJ - Chillicothe, Missouri, USA
Distance from station: NE 74mi, 120km
Updated: Sun, 11-Dec-2016 2:52am CST

 Wind from SSE
Wind: SSE 10 mph , 17 km/h
Temperature: 37°F , 3°C
Wind Chill: 30°F , -1°C
Dew Point: 19°F , -7°C
Humidity: 48%
Barometer: 29.91 inHg , 1012.9 hPa
2016/12/11 08:52 KCDJ 110852Z AUTO 16009KT 03/M07 A2991 RMK AO1 SLP140 T00281067 56034 $
 
KFNB - Falls City/Brenn, Nebraska, USA
Distance from station: NW 96mi, 154km
Updated: Sun, 11-Dec-2016 2:53am CST
Overcast
Overcast
 Wind from SSE
Wind: SSE 10 mph , 17 km/h
Temperature: 36°F , 2°C
Wind Chill: 29°F , -2°C
Dew Point: 25°F , -4°C
Humidity: 65%
Barometer: 29.80 inHg , 1009.1 hPa
Clouds: Overcast
Visibility: 10 miles , 16 km
Cloud details: Mostly cloudy 2300 ft
Overcast 3900 ft
2016/12/11 08:53 KFNB 110853Z AUTO 15009KT 10SM BKN023 OVC039 02/M04 A2980 RMK AO2 SLP097 T00221044 56029
KVER - Boonville, Missouri, USA
Distance from station: E 96mi, 154km
Updated: Thu, 08-Dec-2016 11:15am CST
NOT Current
Partly cloudy
Partly cloudy
 Wind from W
Wind: W 12 mph , 19 km/h, Gust: 21 mph , 33 km/h
Temperature: 23°F , -5°C
Wind Chill: 11°F , -12°C
Dew Point: 10°F , -12°C
Humidity: 58%
Barometer: 30.58 inHg , 1035.6 hPa
Clouds: Partly cloudy
Visibility: 10 miles , 16 km
Cloud details: Partly cloudy 2800 ft
2016/12/08 17:15 KVER 081715Z AUTO 28010G18KT 10SM SCT028 M05/M12 A3058 RMK AO2 T10481125